This is the latest recevied weather packets stored in our database for station/object IT9FBN-3. If no packets are shown the sender has not sent any weather packets the latest 10 day(s).
| Time | Temp. | Humidity | Pressure | Rain* | Wind** | Luminosity | Snow |
|---|---|---|---|---|---|---|---|
| 1777513503 | 17.22° C | 53% | 1015.4 hPa | 0 mm | - | - | - |
| 1777512903 | 17.22° C | 56% | 1015.7 hPa | 0 mm | - | - | - |
| 1777512603 | 17.22° C | 57% | 1015.8 hPa | 0 mm | - | - | - |
| 1777512003 | 17.22° C | 59% | 1015.8 hPa | 0 mm | - | - | - |
| 1777511703 | 17.22° C | 60% | 1015.9 hPa | 0 mm | - | - | - |
| 1777511403 | 16.67° C | 61% | 1015.8 hPa | 0 mm | - | - | - |
| 1777511105 | 16.11° C | 63% | 1015.8 hPa | 0 mm | - | - | - |
| 1777510503 | 15.56° C | 66% | 1015.9 hPa | 0 mm | - | - | - |
| 1777509303 | 15.56° C | 65% | 1016 hPa | 0 mm | - | - | - |
| 1777507803 | 15.56° C | 66% | 1016.1 hPa | 0 mm | - | - | - |
| 1777496102 | 17.22° C | 52% | 1016.6 hPa | 0 mm | - | - | - |
| 1777490701 | 16.67° C | 70% | 1016.3 hPa | 0 mm | - | - | - |
| 1777480202 | 22.78° C | 43% | 1015.2 hPa | 0 mm | - | - | - |
| 1777471502 | 22.22° C | 40% | 1016.4 hPa | 0 mm | - | - | - |
| 1777470902 | 22.22° C | 41% | 1016.6 hPa | 0 mm | - | - | - |
| 1777469102 | 22.78° C | 36% | 1016.6 hPa | 0 mm | - | - | - |
| 1777468802 | 22.78° C | 37% | 1016.6 hPa | 0 mm | - | - | - |
| 1777468502 | 22.22° C | 38% | 1016.6 hPa | 0 mm | - | - | - |
| 1777468202 | 22.22° C | 39% | 1016.1 hPa | 0 mm | - | - | - |
| 1777465801 | 20.56° C | 41% | 1016 hPa | 0 mm | - | - | - |
| 1777465201 | 20.56° C | 40% | 1015.9 hPa | 0 mm | - | - | - |
| 1777464902 | 20.56° C | 38% | 1016.2 hPa | 0 mm | - | - | - |
| 1777463702 | 21.11° C | 36% | 1017.6 hPa | 0 mm | - | - | - |
| 1777462802 | 21.67° C | 36% | 1017.8 hPa | 0 mm | - | - | - |
| 1777462501 | 21.67° C | 38% | 1017.8 hPa | 0 mm | - | - | - |
* Rain latest hour (hover to see other rain measurements)
** Current wind speed in m/s (hover to see current wind gust speed)